Interesting weather happening, windspeed ... / 2010-11-11

2010-11-11 Interesting weather happening, windspeed ...6 years ago
Interesting weather happening, windspeed Northsea reported at 24 meter/second with 29 meter/second gusts (87 and 105 kilometer per hour).
Update 15:10 EHKV reporting ///42G64KT wind (78 kilometer per hour sustained, 119 kilometer per hour gust). Wind without direction isn't parsed correctly by Geo::METAR so the weather.idefix.net plot for 15:00 CET has no wind for EHKV.
Update Geo::METAR local version updated, /// is 'measurement broken'. But the plotscript still can't draw a windvane for that measurement.
Update 16:20 Last report from EHPG (hiding under the scale on weather.idefix.net): EHPG 111425Z AUTO 20049G64KT 170V270 5000NDV -DZ FEW005/// BKN007/// OVC008/// 10/08 Q0978 49 knots, 64 knots gusts: 91 kilometer per hour sustained, 119 kilometer per hour gust. Windy! EHPG is oil platform P11-B. Maybe I should add a map 'Northsea' to the weather maps.

Tags: ,

, reachable as koos+website@idefix.net. PGP encrypted e-mail preferred.

PGP key 5BA9 368B E6F3 34E4 local copy PGP key 5BA9 368B E6F3 34E4 via keyservers pgp key statistics for 0x5BA9368BE6F334E4 Koos van den Hout
RSS
Other webprojects: Camp Wireless, wireless Internet access at campsites, The Virtual Bookcase, book reviews, Weather maps
This page generated in 0.008353 seconds.